Terminal Aerodrome Forecast
Issued by NWS

Home | Current Version | Previous Version | Text Only | Print | Product List | Glossary On
Versions: 1 2 3 4 5 6 7 8 9 10 11 12 13
000
FTUS44 KEPZ 280520
TAFTCS
TAF
KTCS 280520Z 2806/2906 27012G20KT P6SM FEW100 BKN250
     FM280900 28012KT P6SM BKN250
     FM281500 24018G30KT P6SM FEW100 BKN250
     FM282100 26024G36KT P6SM BKN250=

USA.gov is the U.S. government's official web portal to all federal, state and local government web resources and services.